sensor_id;sensor_type;location;lat;lon;timestamp;pressure;altitude;pressure_sealevel;temperature;humidity
4586;BME280;2305;50.118;8.952;2023-06-14T00:02:16;100174.44;;;19.69;80.56
4586;BME280;2305;50.118;8.952;2023-06-14T00:04:44;100175.84;;;19.65;81.70
4586;BME280;2305;50.118;8.952;2023-06-14T00:07:12;100181.75;;;19.61;81.94
4586;BME280;2305;50.118;8.952;2023-06-14T00:09:40;100176.31;;;19.54;82.87
4586;BME280;2305;50.118;8.952;2023-06-14T00:12:09;100183.06;;;19.50;84.24
4586;BME280;2305;50.118;8.952;2023-06-14T00:14:37;100182.59;;;19.47;84.52
4586;BME280;2305;50.118;8.952;2023-06-14T00:17:05;100184.97;;;19.42;85.24
4586;BME280;2305;50.118;8.952;2023-06-14T00:19:35;100190.97;;;19.29;87.03
4586;BME280;2305;50.118;8.952;2023-06-14T00:22:04;100182.50;;;19.26;87.74
4586;BME280;2305;50.118;8.952;2023-06-14T00:24:33;100196.22;;;19.23;87.40
4586;BME280;2305;50.118;8.952;2023-06-14T00:27:01;100193.38;;;19.24;84.96
4586;BME280;2305;50.118;8.952;2023-06-14T00:29:29;100190.31;;;19.27;85.51
4586;BME280;2305;50.118;8.952;2023-06-14T00:31:57;100197.31;;;19.28;85.94
4586;BME280;2305;50.118;8.952;2023-06-14T00:34:29;100194.16;;;19.25;85.05
4586;BME280;2305;50.118;8.952;2023-06-14T00:36:58;100198.31;;;19.27;82.81
4586;BME280;2305;50.118;8.952;2023-06-14T00:39:27;100196.66;;;19.26;83.87
4586;BME280;2305;50.118;8.952;2023-06-14T00:41:55;100187.72;;;19.19;85.42
4586;BME280;2305;50.118;8.952;2023-06-14T00:44:25;100187.22;;;19.16;86.54
4586;BME280;2305;50.118;8.952;2023-06-14T00:46:53;100189.25;;;19.14;88.12
4586;BME280;2305;50.118;8.952;2023-06-14T00:49:22;100189.69;;;19.03;88.43
4586;BME280;2305;50.118;8.952;2023-06-14T00:51:51;100193.75;;;18.99;88.29
4586;BME280;2305;50.118;8.952;2023-06-14T00:54:24;100196.97;;;18.94;88.12
4586;BME280;2305;50.118;8.952;2023-06-14T00:56:55;100193.72;;;18.84;89.31
4586;BME280;2305;50.118;8.952;2023-06-14T00:59:23;100202.56;;;18.85;88.96
4586;BME280;2305;50.118;8.952;2023-06-14T01:01:51;100202.41;;;18.87;89.60
4586;BME280;2305;50.118;8.952;2023-06-14T01:04:19;100200.44;;;18.81;90.85
4586;BME280;2305;50.118;8.952;2023-06-14T01:06:54;100201.63;;;18.78;92.50
4586;BME280;2305;50.118;8.952;2023-06-14T01:09:43;100204.63;;;18.75;90.57
4586;BME280;2305;50.118;8.952;2023-06-14T01:12:21;100201.81;;;18.77;90.49
4586;BME280;2305;50.118;8.952;2023-06-14T01:14:53;100202.81;;;18.76;90.85
4586;BME280;2305;50.118;8.952;2023-06-14T01:17:22;100198.84;;;18.72;91.17
4586;BME280;2305;50.118;8.952;2023-06-14T01:19:55;100198.38;;;18.68;91.87
4586;BME280;2305;50.118;8.952;2023-06-14T01:22:25;100203.53;;;18.70;91.47
4586;BME280;2305;50.118;8.952;2023-06-14T01:24:56;100205.56;;;18.68;92.05
4586;BME280;2305;50.118;8.952;2023-06-14T01:27:25;100206.56;;;18.67;92.54
4586;BME280;2305;50.118;8.952;2023-06-14T01:29:57;100205.09;;;18.64;93.19
4586;BME280;2305;50.118;8.952;2023-06-14T01:32:32;100196.06;;;18.65;93.35
4586;BME280;2305;50.118;8.952;2023-06-14T01:35:04;100194.56;;;18.63;96.02
4586;BME280;2305;50.118;8.952;2023-06-14T01:37:33;100199.63;;;18.58;93.11
4586;BME280;2305;50.118;8.952;2023-06-14T01:40:05;100202.66;;;18.55;94.03
4586;BME280;2305;50.118;8.952;2023-06-14T01:42:36;100203.66;;;18.54;93.79
4586;BME280;2305;50.118;8.952;2023-06-14T01:45:06;100199.34;;;18.53;93.62
4586;BME280;2305;50.118;8.952;2023-06-14T01:47:35;100202.00;;;18.53;94.69
4586;BME280;2305;50.118;8.952;2023-06-14T01:50:04;100202.56;;;18.48;95.57
4586;BME280;2305;50.118;8.952;2023-06-14T01:52:33;100198.09;;;18.41;98.49
4586;BME280;2305;50.118;8.952;2023-06-14T01:55:06;100202.13;;;18.37;98.53
4586;BME280;2305;50.118;8.952;2023-06-14T01:57:35;100199.81;;;18.34;98.61
4586;BME280;2305;50.118;8.952;2023-06-14T02:00:04;100198.19;;;18.25;98.50
4586;BME280;2305;50.118;8.952;2023-06-14T02:02:39;100201.19;;;18.22;99.18
4586;BME280;2305;50.118;8.952;2023-06-14T02:05:07;100203.38;;;18.18;99.80
4586;BME280;2305;50.118;8.952;2023-06-14T02:07:36;100202.56;;;18.18;100.00
4586;BME280;2305;50.118;8.952;2023-06-14T02:10:06;100198.72;;;18.20;100.00
4586;BME280;2305;50.118;8.952;2023-06-14T02:12:34;100199.56;;;18.13;100.00
4586;BME280;2305;50.118;8.952;2023-06-14T02:15:04;100204.59;;;18.08;100.00
4586;BME280;2305;50.118;8.952;2023-06-14T02:17:32;100204.81;;;18.06;100.00
4586;BME280;2305;50.118;8.952;2023-06-14T02:20:06;100207.31;;;18.00;100.00
4586;BME280;2305;50.118;8.952;2023-06-14T02:22:36;100208.16;;;18.00;100.00
4586;BME280;2305;50.118;8.952;2023-06-14T02:25:09;100212.16;;;17.96;100.00
4586;BME280;2305;50.118;8.952;2023-06-14T02:27:41;100209.34;;;17.98;100.00
4586;BME280;2305;50.118;8.952;2023-06-14T02:30:11;100216.84;;;17.94;100.00
4586;BME280;2305;50.118;8.952;2023-06-14T02:32:40;100218.22;;;17.90;100.00
4586;BME280;2305;50.118;8.952;2023-06-14T02:35:12;100223.56;;;17.90;100.00
4586;BME280;2305;50.118;8.952;2023-06-14T02:37:40;100217.25;;;17.83;100.00
4586;BME280;2305;50.118;8.952;2023-06-14T02:40:12;100222.44;;;17.77;100.00
4586;BME280;2305;50.118;8.952;2023-06-14T02:42:40;100225.47;;;17.74;100.00
4586;BME280;2305;50.118;8.952;2023-06-14T02:45:08;100224.28;;;17.68;100.00
4586;BME280;2305;50.118;8.952;2023-06-14T02:47:37;100231.47;;;17.68;100.00
4586;BME280;2305;50.118;8.952;2023-06-14T02:50:07;100233.28;;;17.67;100.00
4586;BME280;2305;50.118;8.952;2023-06-14T02:52:38;100229.13;;;17.65;100.00
4586;BME280;2305;50.118;8.952;2023-06-14T02:55:08;100231.66;;;17.58;100.00
4586;BME280;2305;50.118;8.952;2023-06-14T02:57:38;62444.91;;;-139.26;100.00
4586;BME280;2305;50.118;8.952;2023-06-14T03:00:09;62444.91;;;-139.26;100.00
4586;BME280;2305;50.118;8.952;2023-06-14T03:02:41;62444.91;;;-139.26;100.00
4586;BME280;2305;50.118;8.952;2023-06-14T03:05:11;62444.91;;;-139.26;100.00
4586;BME280;2305;50.118;8.952;2023-06-14T03:07:40;62444.91;;;-139.26;100.00
4586;BME280;2305;50.118;8.952;2023-06-14T03:10:11;62444.91;;;-139.26;100.00
4586;BME280;2305;50.118;8.952;2023-06-14T03:12:45;62444.91;;;-139.26;100.00
4586;BME280;2305;50.118;8.952;2023-06-14T03:15:15;62444.91;;;-139.26;100.00
4586;BME280;2305;50.118;8.952;2023-06-14T03:17:47;62444.91;;;-139.26;100.00
4586;BME280;2305;50.118;8.952;2023-06-14T03:20:16;62444.91;;;-139.26;100.00
4586;BME280;2305;50.118;8.952;2023-06-14T03:22:47;62444.91;;;-139.26;100.00
4586;BME280;2305;50.118;8.952;2023-06-14T03:25:17;62444.91;;;-139.26;100.00
4586;BME280;2305;50.118;8.952;2023-06-14T03:27:51;62444.91;;;-139.26;100.00
4586;BME280;2305;50.118;8.952;2023-06-14T03:30:19;62444.91;;;17.22;100.00
4586;BME280;2305;50.118;8.952;2023-06-14T03:32:49;62444.91;;;-139.26;100.00
4586;BME280;2305;50.118;8.952;2023-06-14T03:44:49;62444.91;;;-139.26;100.00
4586;BME280;2305;50.118;8.952;2023-06-14T03:47:22;105099.06;;;-139.26;100.00
4586;BME280;2305;50.118;8.952;2023-06-14T03:49:51;62444.91;;;-139.26;100.00
4586;BME280;2305;50.118;8.952;2023-06-14T03:52:22;62444.91;;;-139.26;100.00
4586;BME280;2305;50.118;8.952;2023-06-14T03:55:02;62444.91;;;-139.26;100.00
4586;BME280;2305;50.118;8.952;2023-06-14T03:57:34;62444.91;;;-139.26;100.00
4586;BME280;2305;50.118;8.952;2023-06-14T04:00:09;62444.91;;;-139.26;100.00
4586;BME280;2305;50.118;8.952;2023-06-14T04:02:42;62444.91;;;-139.26;100.00
4586;BME280;2305;50.118;8.952;2023-06-14T04:05:13;62444.91;;;-139.26;100.00
4586;BME280;2305;50.118;8.952;2023-06-14T04:07:46;62444.91;;;-139.26;100.00
4586;BME280;2305;50.118;8.952;2023-06-14T04:10:16;62444.91;;;-139.26;100.00
4586;BME280;2305;50.118;8.952;2023-06-14T04:12:45;62444.91;;;-139.26;100.00
4586;BME280;2305;50.118;8.952;2023-06-14T04:15:15;62444.91;;;-139.26;100.00
4586;BME280;2305;50.118;8.952;2023-06-14T04:17:48;62444.91;;;-139.26;100.00
4586;BME280;2305;50.118;8.952;2023-06-14T04:20:20;62444.91;;;-139.26;100.00
4586;BME280;2305;50.118;8.952;2023-06-14T04:22:50;62444.91;;;-139.26;100.00
4586;BME280;2305;50.118;8.952;2023-06-14T04:25:19;62444.91;;;-139.26;100.00
4586;BME280;2305;50.118;8.952;2023-06-14T04:27:51;62444.91;;;-139.26;100.00
4586;BME280;2305;50.118;8.952;2023-06-14T04:30:22;62444.91;;;-139.26;100.00
4586;BME280;2305;50.118;8.952;2023-06-14T04:32:55;62444.91;;;-139.26;100.00
4586;BME280;2305;50.118;8.952;2023-06-14T04:35:24;62444.91;;;-139.26;100.00
4586;BME280;2305;50.118;8.952;2023-06-14T04:37:52;62444.91;;;-139.26;100.00
4586;BME280;2305;50.118;8.952;2023-06-14T04:40:24;62444.91;;;-139.26;100.00
4586;BME280;2305;50.118;8.952;2023-06-14T04:42:53;62444.91;;;-139.26;100.00
4586;BME280;2305;50.118;8.952;2023-06-14T04:45:24;62444.91;;;-139.26;100.00
4586;BME280;2305;50.118;8.952;2023-06-14T04:47:59;62444.91;;;-139.26;100.00
4586;BME280;2305;50.118;8.952;2023-06-14T04:50:28;62444.91;;;-139.26;100.00
4586;BME280;2305;50.118;8.952;2023-06-14T04:52:57;62444.91;;;-139.26;100.00
4586;BME280;2305;50.118;8.952;2023-06-14T04:55:26;62444.91;;;-139.26;100.00
4586;BME280;2305;50.118;8.952;2023-06-14T04:57:54;62444.91;;;-139.26;100.00
4586;BME280;2305;50.118;8.952;2023-06-14T05:00:24;62444.91;;;-139.26;100.00
4586;BME280;2305;50.118;8.952;2023-06-14T05:02:56;62444.91;;;-139.26;100.00
4586;BME280;2305;50.118;8.952;2023-06-14T05:05:25;62444.91;;;-139.26;100.00
4586;BME280;2305;50.118;8.952;2023-06-14T05:07:55;62444.91;;;-139.26;100.00
4586;BME280;2305;50.118;8.952;2023-06-14T05:10:24;62444.91;;;-139.26;100.00
4586;BME280;2305;50.118;8.952;2023-06-14T05:12:53;62444.91;;;-139.26;100.00
4586;BME280;2305;50.118;8.952;2023-06-14T05:15:22;62444.91;;;-139.26;100.00
4586;BME280;2305;50.118;8.952;2023-06-14T05:17:54;62444.91;;;-139.26;100.00
4586;BME280;2305;50.118;8.952;2023-06-14T05:20:23;62444.91;;;-139.26;100.00
4586;BME280;2305;50.118;8.952;2023-06-14T05:22:55;62444.91;;;-139.26;100.00
4586;BME280;2305;50.118;8.952;2023-06-14T05:25:23;62444.91;;;-139.26;100.00
4586;BME280;2305;50.118;8.952;2023-06-14T05:27:52;62444.91;;;-139.26;100.00
4586;BME280;2305;50.118;8.952;2023-06-14T05:30:20;62444.91;;;-139.26;100.00
4586;BME280;2305;50.118;8.952;2023-06-14T05:32:54;62444.91;;;-139.26;100.00
4586;BME280;2305;50.118;8.952;2023-06-14T05:35:22;62444.91;;;-139.26;100.00
4586;BME280;2305;50.118;8.952;2023-06-14T05:37:58;62444.91;;;-139.26;100.00
4586;BME280;2305;50.118;8.952;2023-06-14T05:40:28;62444.91;;;-139.26;100.00
4586;BME280;2305;50.118;8.952;2023-06-14T05:42:56;62444.91;;;-139.26;100.00
4586;BME280;2305;50.118;8.952;2023-06-14T05:45:25;62444.91;;;-139.26;100.00
4586;BME280;2305;50.118;8.952;2023-06-14T05:47:54;62444.91;;;-139.26;100.00
4586;BME280;2305;50.118;8.952;2023-06-14T05:50:27;62444.91;;;-139.26;100.00
4586;BME280;2305;50.118;8.952;2023-06-14T05:52:55;62444.91;;;-139.26;100.00
4586;BME280;2305;50.118;8.952;2023-06-14T05:55:23;62444.91;;;-139.26;100.00
4586;BME280;2305;50.118;8.952;2023-06-14T05:57:53;62444.91;;;-139.26;100.00
4586;BME280;2305;50.118;8.952;2023-06-14T06:00:23;62444.91;;;-139.26;100.00
4586;BME280;2305;50.118;8.952;2023-06-14T06:02:51;62444.91;;;-139.26;100.00
4586;BME280;2305;50.118;8.952;2023-06-14T06:05:21;62444.91;;;-139.26;100.00
4586;BME280;2305;50.118;8.952;2023-06-14T06:07:52;62444.91;;;-139.26;100.00
4586;BME280;2305;50.118;8.952;2023-06-14T06:10:20;62444.91;;;-139.26;100.00
4586;BME280;2305;50.118;8.952;2023-06-14T06:12:49;62444.91;;;-139.26;100.00
4586;BME280;2305;50.118;8.952;2023-06-14T06:15:18;62444.91;;;-139.26;100.00
4586;BME280;2305;50.118;8.952;2023-06-14T06:17:47;62444.91;;;-139.26;100.00
4586;BME280;2305;50.118;8.952;2023-06-14T06:20:24;62444.91;;;-139.26;100.00
4586;BME280;2305;50.118;8.952;2023-06-14T06:22:56;62444.91;;;-139.26;100.00
4586;BME280;2305;50.118;8.952;2023-06-14T06:25:25;62444.91;;;-139.26;100.00
4586;BME280;2305;50.118;8.952;2023-06-14T06:27:53;62444.91;;;-139.26;100.00
4586;BME280;2305;50.118;8.952;2023-06-14T06:30:22;62444.91;;;-139.26;100.00
4586;BME280;2305;50.118;8.952;2023-06-14T06:32:56;62444.91;;;-139.26;100.00
4586;BME280;2305;50.118;8.952;2023-06-14T06:35:28;62444.91;;;-139.26;100.00
4586;BME280;2305;50.118;8.952;2023-06-14T06:38:02;62444.91;;;-139.26;100.00
4586;BME280;2305;50.118;8.952;2023-06-14T06:40:30;62444.91;;;-139.26;100.00
4586;BME280;2305;50.118;8.952;2023-06-14T06:42:59;62444.91;;;-139.26;100.00
4586;BME280;2305;50.118;8.952;2023-06-14T06:45:30;62444.91;;;-139.26;100.00
4586;BME280;2305;50.118;8.952;2023-06-14T06:47:58;62444.91;;;-139.26;100.00
4586;BME280;2305;50.118;8.952;2023-06-14T06:50:28;62444.91;;;-139.26;100.00
4586;BME280;2305;50.118;8.952;2023-06-14T06:52:58;62444.91;;;-139.26;100.00
4586;BME280;2305;50.118;8.952;2023-06-14T06:55:27;62444.91;;;-139.26;100.00
4586;BME280;2305;50.118;8.952;2023-06-14T06:57:55;62444.91;;;-139.26;100.00
4586;BME280;2305;50.118;8.952;2023-06-14T07:00:23;62444.91;;;-139.26;100.00
4586;BME280;2305;50.118;8.952;2023-06-14T07:03:04;62444.91;;;-139.26;100.00
4586;BME280;2305;50.118;8.952;2023-06-14T07:05:35;62444.91;;;-139.26;100.00
4586;BME280;2305;50.118;8.952;2023-06-14T07:08:04;62444.91;;;-139.26;100.00
4586;BME280;2305;50.118;8.952;2023-06-14T07:10:35;62444.91;;;-139.26;100.00
4586;BME280;2305;50.118;8.952;2023-06-14T07:13:05;62444.91;;;-139.26;100.00
4586;BME280;2305;50.118;8.952;2023-06-14T07:15:36;62444.91;;;-139.26;100.00
4586;BME280;2305;50.118;8.952;2023-06-14T07:18:04;62444.91;;;-139.26;100.00
4586;BME280;2305;50.118;8.952;2023-06-14T07:20:35;62444.91;;;-139.26;100.00
4586;BME280;2305;50.118;8.952;2023-06-14T07:23:05;62444.91;;;-139.26;100.00
4586;BME280;2305;50.118;8.952;2023-06-14T07:25:33;62444.91;;;-139.26;100.00
4586;BME280;2305;50.118;8.952;2023-06-14T07:28:02;62444.91;;;-139.26;100.00
4586;BME280;2305;50.118;8.952;2023-06-14T07:30:30;62444.91;;;-139.26;100.00
4586;BME280;2305;50.118;8.952;2023-06-14T07:33:02;62444.91;;;-139.26;100.00
4586;BME280;2305;50.118;8.952;2023-06-14T07:35:30;62444.91;;;-139.26;100.00
4586;BME280;2305;50.118;8.952;2023-06-14T07:38:00;62444.91;;;-139.26;100.00
4586;BME280;2305;50.118;8.952;2023-06-14T07:40:31;62444.91;;;-139.26;100.00
4586;BME280;2305;50.118;8.952;2023-06-14T07:42:59;62444.91;;;-139.26;100.00
4586;BME280;2305;50.118;8.952;2023-06-14T07:45:29;62444.91;;;-139.26;100.00
4586;BME280;2305;50.118;8.952;2023-06-14T07:47:57;62444.91;;;-139.26;100.00
4586;BME280;2305;50.118;8.952;2023-06-14T07:50:28;62444.91;;;-139.26;100.00
4586;BME280;2305;50.118;8.952;2023-06-14T07:52:59;62444.91;;;-139.26;100.00
4586;BME280;2305;50.118;8.952;2023-06-14T07:55:27;62444.91;;;-139.26;100.00
4586;BME280;2305;50.118;8.952;2023-06-14T07:58:05;62444.91;;;-139.26;100.00
4586;BME280;2305;50.118;8.952;2023-06-14T08:00:35;62444.91;;;-139.26;100.00
4586;BME280;2305;50.118;8.952;2023-06-14T08:03:05;62444.91;;;-139.26;100.00
4586;BME280;2305;50.118;8.952;2023-06-14T08:05:34;62444.91;;;-139.26;100.00
4586;BME280;2305;50.118;8.952;2023-06-14T08:08:04;62444.91;;;-139.26;100.00
4586;BME280;2305;50.118;8.952;2023-06-14T08:10:32;62444.91;;;-139.26;100.00
4586;BME280;2305;50.118;8.952;2023-06-14T08:13:00;62444.91;;;-139.26;100.00
4586;BME280;2305;50.118;8.952;2023-06-14T08:15:31;62444.91;;;-139.26;100.00
4586;BME280;2305;50.118;8.952;2023-06-14T08:18:00;62444.91;;;-139.26;100.00
4586;BME280;2305;50.118;8.952;2023-06-14T08:20:28;62444.91;;;-139.26;100.00
4586;BME280;2305;50.118;8.952;2023-06-14T08:22:58;62444.91;;;-139.26;100.00
4586;BME280;2305;50.118;8.952;2023-06-14T08:25:27;62444.91;;;-139.26;100.00
4586;BME280;2305;50.118;8.952;2023-06-14T08:27:56;62444.91;;;-139.26;100.00
4586;BME280;2305;50.118;8.952;2023-06-14T08:30:26;62444.91;;;-139.26;100.00
4586;BME280;2305;50.118;8.952;2023-06-14T08:32:54;62444.91;;;-139.26;100.00
4586;BME280;2305;50.118;8.952;2023-06-14T08:35:41;62444.91;;;-139.26;100.00
4586;BME280;2305;50.118;8.952;2023-06-14T08:38:10;62444.91;;;-139.26;100.00
4586;BME280;2305;50.118;8.952;2023-06-14T08:40:41;62444.91;;;-139.26;100.00
4586;BME280;2305;50.118;8.952;2023-06-14T08:43:10;62444.91;;;-139.26;100.00
4586;BME280;2305;50.118;8.952;2023-06-14T08:45:39;62444.91;;;-139.26;100.00
4586;BME280;2305;50.118;8.952;2023-06-14T08:48:07;62444.91;;;-139.26;100.00
4586;BME280;2305;50.118;8.952;2023-06-14T08:50:38;62444.91;;;-139.26;100.00
4586;BME280;2305;50.118;8.952;2023-06-14T08:53:11;62444.91;;;-139.26;100.00
4586;BME280;2305;50.118;8.952;2023-06-14T08:55:48;62444.91;;;-139.26;100.00
4586;BME280;2305;50.118;8.952;2023-06-14T08:58:18;62444.91;;;-139.26;100.00
4586;BME280;2305;50.118;8.952;2023-06-14T09:00:46;62444.91;;;-139.26;100.00
4586;BME280;2305;50.118;8.952;2023-06-14T09:03:14;62444.91;;;-139.26;100.00
4586;BME280;2305;50.118;8.952;2023-06-14T09:05:43;62444.91;;;-139.26;100.00
4586;BME280;2305;50.118;8.952;2023-06-14T09:08:13;62444.91;;;-139.26;100.00
4586;BME280;2305;50.118;8.952;2023-06-14T09:10:40;62444.91;;;-139.26;100.00
4586;BME280;2305;50.118;8.952;2023-06-14T09:13:10;62444.91;;;-139.26;100.00
4586;BME280;2305;50.118;8.952;2023-06-14T09:15:42;62444.91;;;-139.26;100.00
4586;BME280;2305;50.118;8.952;2023-06-14T09:18:11;62444.91;;;-139.26;100.00
4586;BME280;2305;50.118;8.952;2023-06-14T09:20:40;62444.91;;;-139.26;100.00
4586;BME280;2305;50.118;8.952;2023-06-14T09:23:09;62444.91;;;-139.26;100.00
4586;BME280;2305;50.118;8.952;2023-06-14T09:25:47;62444.91;;;-139.26;100.00
4586;BME280;2305;50.118;8.952;2023-06-14T09:28:16;62444.91;;;-139.26;100.00
4586;BME280;2305;50.118;8.952;2023-06-14T09:30:45;62444.91;;;-139.26;100.00
4586;BME280;2305;50.118;8.952;2023-06-14T09:33:17;62444.91;;;-139.26;100.00
4586;BME280;2305;50.118;8.952;2023-06-14T09:35:46;62444.91;;;-139.26;100.00
4586;BME280;2305;50.118;8.952;2023-06-14T09:38:20;62444.91;;;-139.26;100.00
4586;BME280;2305;50.118;8.952;2023-06-14T09:40:50;62444.91;;;-139.26;100.00
4586;BME280;2305;50.118;8.952;2023-06-14T09:43:20;62444.91;;;-139.26;100.00
4586;BME280;2305;50.118;8.952;2023-06-14T09:45:50;62444.91;;;-139.26;100.00
4586;BME280;2305;50.118;8.952;2023-06-14T09:48:21;62444.91;;;-139.26;100.00
4586;BME280;2305;50.118;8.952;2023-06-14T09:50:51;62444.91;;;-139.26;100.00
4586;BME280;2305;50.118;8.952;2023-06-14T09:53:23;62444.91;;;-139.26;100.00
4586;BME280;2305;50.118;8.952;2023-06-14T09:55:52;62444.91;;;-139.26;100.00
4586;BME280;2305;50.118;8.952;2023-06-14T09:58:26;62444.91;;;-139.26;100.00
4586;BME280;2305;50.118;8.952;2023-06-14T10:00:56;62444.91;;;-139.26;100.00
4586;BME280;2305;50.118;8.952;2023-06-14T10:03:28;62444.91;;;-139.26;100.00
4586;BME280;2305;50.118;8.952;2023-06-14T10:06:09;62444.91;;;-139.26;100.00
4586;BME280;2305;50.118;8.952;2023-06-14T10:08:38;62444.91;;;-139.26;100.00
4586;BME280;2305;50.118;8.952;2023-06-14T10:11:08;62444.91;;;-139.26;100.00
4586;BME280;2305;50.118;8.952;2023-06-14T10:13:42;62444.91;;;-139.26;100.00
4586;BME280;2305;50.118;8.952;2023-06-14T10:16:17;62444.91;;;-139.26;100.00
4586;BME280;2305;50.118;8.952;2023-06-14T10:18:51;62444.91;;;-139.26;100.00
4586;BME280;2305;50.118;8.952;2023-06-14T10:21:25;62444.91;;;-139.26;100.00
4586;BME280;2305;50.118;8.952;2023-06-14T10:24:03;62444.91;;;-139.26;100.00
4586;BME280;2305;50.118;8.952;2023-06-14T10:26:33;62444.91;;;-139.26;100.00
4586;BME280;2305;50.118;8.952;2023-06-14T10:29:08;62444.91;;;-139.26;100.00
4586;BME280;2305;50.118;8.952;2023-06-14T10:31:41;62444.91;;;-139.26;100.00
4586;BME280;2305;50.118;8.952;2023-06-14T10:34:10;62444.91;;;-139.26;100.00
4586;BME280;2305;50.118;8.952;2023-06-14T10:36:44;62444.91;;;-139.26;100.00
4586;BME280;2305;50.118;8.952;2023-06-14T10:39:15;62444.91;;;-139.26;100.00
4586;BME280;2305;50.118;8.952;2023-06-14T10:41:52;62444.91;;;-139.26;100.00
4586;BME280;2305;50.118;8.952;2023-06-14T10:44:44;62444.91;;;-139.26;100.00
4586;BME280;2305;50.118;8.952;2023-06-14T10:47:37;62444.91;;;-139.26;100.00
4586;BME280;2305;50.118;8.952;2023-06-14T10:50:08;62444.91;;;-139.26;100.00
4586;BME280;2305;50.118;8.952;2023-06-14T10:52:39;62444.91;;;-139.26;100.00
4586;BME280;2305;50.118;8.952;2023-06-14T10:55:13;62444.91;;;-139.26;100.00
4586;BME280;2305;50.118;8.952;2023-06-14T10:57:45;62444.91;;;-139.26;100.00
4586;BME280;2305;50.118;8.952;2023-06-14T11:00:21;62444.91;;;-139.26;100.00
4586;BME280;2305;50.118;8.952;2023-06-14T11:06:15;62444.91;;;-139.26;100.00
4586;BME280;2305;50.118;8.952;2023-06-14T11:11:44;62444.91;;;-139.26;100.00
4586;BME280;2305;50.118;8.952;2023-06-14T11:14:14;62444.91;;;-139.26;100.00
4586;BME280;2305;50.118;8.952;2023-06-14T11:16:47;62444.91;;;-139.26;100.00
4586;BME280;2305;50.118;8.952;2023-06-14T11:19:16;62444.91;;;-139.26;100.00
4586;BME280;2305;50.118;8.952;2023-06-14T11:21:47;62444.91;;;-139.26;100.00
4586;BME280;2305;50.118;8.952;2023-06-14T11:24:18;62444.91;;;-139.26;100.00
4586;BME280;2305;50.118;8.952;2023-06-14T11:26:49;62444.91;;;-139.26;100.00
4586;BME280;2305;50.118;8.952;2023-06-14T11:29:20;62444.91;;;-139.26;100.00
4586;BME280;2305;50.118;8.952;2023-06-14T11:31:52;62444.91;;;-139.26;100.00
4586;BME280;2305;50.118;8.952;2023-06-14T11:34:20;62444.91;;;-139.26;100.00
4586;BME280;2305;50.118;8.952;2023-06-14T11:36:51;62444.91;;;-139.26;100.00
4586;BME280;2305;50.118;8.952;2023-06-14T11:39:24;62444.91;;;-139.26;100.00
4586;BME280;2305;50.118;8.952;2023-06-14T11:41:53;62444.91;;;-139.26;100.00
4586;BME280;2305;50.118;8.952;2023-06-14T11:44:24;62444.91;;;-139.26;100.00
4586;BME280;2305;50.118;8.952;2023-06-14T11:46:54;62444.91;;;-139.26;100.00
4586;BME280;2305;50.118;8.952;2023-06-14T11:49:24;62444.91;;;-139.26;100.00
4586;BME280;2305;50.118;8.952;2023-06-14T11:51:55;62444.91;;;-139.26;100.00
4586;BME280;2305;50.118;8.952;2023-06-14T11:54:26;62444.91;;;-139.26;100.00
4586;BME280;2305;50.118;8.952;2023-06-14T11:56:56;62444.91;;;-139.26;100.00
4586;BME280;2305;50.118;8.952;2023-06-14T11:59:27;62444.91;;;-139.26;100.00
4586;BME280;2305;50.118;8.952;2023-06-14T12:01:59;62444.91;;;-139.26;100.00
4586;BME280;2305;50.118;8.952;2023-06-14T12:04:29;62444.91;;;-139.26;100.00
4586;BME280;2305;50.118;8.952;2023-06-14T12:07:08;62444.91;;;-139.26;100.00
4586;BME280;2305;50.118;8.952;2023-06-14T12:09:41;62444.91;;;-139.26;100.00
4586;BME280;2305;50.118;8.952;2023-06-14T12:12:15;62444.91;;;-139.26;100.00
4586;BME280;2305;50.118;8.952;2023-06-14T12:14:44;62444.91;;;-139.26;100.00
4586;BME280;2305;50.118;8.952;2023-06-14T12:17:16;62444.91;;;-139.26;100.00
4586;BME280;2305;50.118;8.952;2023-06-14T12:19:46;62444.91;;;-139.26;100.00
4586;BME280;2305;50.118;8.952;2023-06-14T12:22:14;62444.91;;;-139.26;100.00
4586;BME280;2305;50.118;8.952;2023-06-14T12:24:43;62444.91;;;-139.26;100.00
4586;BME280;2305;50.118;8.952;2023-06-14T12:27:11;62444.91;;;-139.26;100.00
4586;BME280;2305;50.118;8.952;2023-06-14T12:29:42;62444.91;;;-139.26;100.00
4586;BME280;2305;50.118;8.952;2023-06-14T12:32:11;62444.91;;;-139.26;100.00
4586;BME280;2305;50.118;8.952;2023-06-14T12:34:40;62444.91;;;-139.26;100.00
4586;BME280;2305;50.118;8.952;2023-06-14T12:37:08;62444.91;;;-139.26;100.00
4586;BME280;2305;50.118;8.952;2023-06-14T12:39:37;62444.91;;;-139.26;100.00
4586;BME280;2305;50.118;8.952;2023-06-14T12:42:07;62444.91;;;-139.26;100.00
4586;BME280;2305;50.118;8.952;2023-06-14T12:44:35;62444.91;;;-139.26;100.00
4586;BME280;2305;50.118;8.952;2023-06-14T12:47:08;62444.91;;;-139.26;100.00
4586;BME280;2305;50.118;8.952;2023-06-14T12:49:38;62444.91;;;-139.26;100.00
4586;BME280;2305;50.118;8.952;2023-06-14T12:52:09;62444.91;;;-139.26;100.00
4586;BME280;2305;50.118;8.952;2023-06-14T12:54:38;62444.91;;;-139.26;100.00
4586;BME280;2305;50.118;8.952;2023-06-14T12:57:07;62444.91;;;-139.26;100.00
4586;BME280;2305;50.118;8.952;2023-06-14T12:59:36;62444.91;;;-139.26;100.00
4586;BME280;2305;50.118;8.952;2023-06-14T13:02:12;62444.91;;;-139.26;100.00
4586;BME280;2305;50.118;8.952;2023-06-14T13:04:41;62444.91;;;-139.26;100.00
4586;BME280;2305;50.118;8.952;2023-06-14T13:07:12;62444.91;;;-139.26;100.00
4586;BME280;2305;50.118;8.952;2023-06-14T13:09:41;62444.91;;;-139.26;100.00
4586;BME280;2305;50.118;8.952;2023-06-14T13:12:10;62444.91;;;-139.26;100.00
4586;BME280;2305;50.118;8.952;2023-06-14T13:14:41;62444.91;;;-139.26;100.00
4586;BME280;2305;50.118;8.952;2023-06-14T13:17:14;62444.91;;;-139.26;100.00
4586;BME280;2305;50.118;8.952;2023-06-14T13:19:43;62444.91;;;-139.26;100.00
4586;BME280;2305;50.118;8.952;2023-06-14T13:22:12;62444.91;;;-139.26;100.00
4586;BME280;2305;50.118;8.952;2023-06-14T13:24:41;62444.91;;;-139.26;100.00
4586;BME280;2305;50.118;8.952;2023-06-14T13:27:09;62444.91;;;-139.26;100.00